Time;durP1;ratioP1;P1;durP2;ratioP2;P2;SDS_P1;SDS_P2;PMS_P1;PMS_P2;Temp;Humidity;BMP_temperature;BMP_pressure;BME280_temperature;BME280_humidity;BME280_pressure;Samples;Min_cycle;Max_cycle;Signal;HPM_P1;HPM_P2
2021/11/27 00:01:42;;;;;;;26.95;12.50;;;;;;;1.03;100.00;95293.47;4954993;28;20139;-86
2021/11/27 00:04:36;;;;;;;29.35;12.50;;;;;;;1.13;100.00;95309.94;4990593;23;20130;-80
2021/11/27 00:07:35;;;;;;;30.42;12.38;;;;;;;0.96;100.00;95282.47;4963111;28;20054;-80
2021/11/27 00:10:41;;;;;;;30.77;12.95;;;;;;;0.94;100.00;95282.81;4950060;28;20055;-81
2021/11/27 00:14:27;;;;;;;33.65;12.65;;;;;;;1.13;100.00;95296.63;4934294;29;20327;-80
2021/11/27 00:17:06;;;;;;;30.58;12.82;;;;;;;0.95;100.00;95267.63;4923706;29;20051;-81
2021/11/27 00:20:07;;;;;;;30.65;12.80;;;;;;;1.06;100.00;95285.63;4929050;29;20452;-79
2021/11/27 00:23:27;;;;;;;;;;;;;;;;;;;;;
2021/11/27 00:30:31;;;;;;;29.95;12.30;;;;;;;0.91;100.00;95259.47;4886921;29;20064;-80
2021/11/27 00:33:33;;;;;;;26.35;11.88;;;;;;;1.11;100.00;95274.06;4950015;29;20078;-80
2021/11/27 00:36:17;;;;;;;29.95;12.65;;;;;;;1.03;100.00;95259.63;4935971;29;20150;-80
2021/11/27 00:39:49;;;;;;;32.88;12.55;;;;;;;0.90;100.00;95249.13;4940973;29;20220;-80
2021/11/27 00:42:49;;;;;;;25.05;11.25;;;;;;;0.84;100.00;95242.38;4908371;29;20408;-79
2021/11/27 00:45:48;;;;;;;26.33;11.85;;;;;;;0.87;100.00;95258.53;4956031;29;20146;-80
2021/11/27 00:48:31;;;;;;;25.30;11.20;;;;;;;0.69;100.00;95229.50;4945765;29;20546;-83
2021/11/27 00:51:56;;;;;;;22.75;10.82;;;;;;;0.59;100.00;95233.25;4932530;29;20055;-79
2021/11/27 00:58:38;;;;;;;27.25;11.57;;;;;;;0.53;100.00;95232.63;4947668;29;20059;-82
2021/11/27 01:01:52;;;;;;;29.83;11.52;;;;;;;0.61;100.00;95255.81;4933404;29;20053;-81
2021/11/27 01:04:38;;;;;;;29.15;10.85;;;;;;;0.51;100.00;95226.84;4923708;29;20055;-79
2021/11/27 01:07:38;;;;;;;25.52;11.18;;;;;;;0.55;100.00;95225.09;4947141;29;20056;-80
2021/11/27 01:10:44;;;;;;;23.30;10.52;;;;;;;0.60;100.00;95202.88;4922126;29;20153;-80
2021/11/27 01:19:57;;;;;;;26.73;11.23;;;;;;;0.50;100.00;95227.91;4942228;28;20047;-80
2021/11/27 01:22:53;;;;;;;28.13;11.43;;;;;;;0.52;100.00;95239.03;4970454;28;20069;-80
2021/11/27 01:25:44;;;;;;;25.75;10.48;;;;;;;0.43;100.00;95210.84;4972315;28;20072;-80
2021/11/27 01:28:17;;;;;;;25.70;11.02;;;;;;;0.42;100.00;95212.72;4962628;28;20058;-80
2021/11/27 01:30:56;;;;;;;25.60;10.93;;;;;;;0.29;100.00;95199.50;4961013;28;20137;-80
2021/11/27 01:33:33;;;;;;;22.70;9.65;;;;;;;0.37;100.00;95212.06;4970117;28;20515;-80
2021/11/27 01:36:09;;;;;;;26.85;10.93;;;;;;;0.35;100.00;95208.94;4971363;28;20058;-80
2021/11/27 01:38:56;;;;;;;26.40;9.93;;;;;;;0.26;100.00;95195.59;4970012;28;20362;-80
2021/11/27 01:41:23;;;;;;;26.50;10.95;;;;;;;0.39;100.00;95209.88;4969649;28;20046;-79
2021/11/27 01:43:57;;;;;;;26.95;10.98;;;;;;;0.30;100.00;95201.09;4970015;28;20057;-79
2021/11/27 01:46:26;;;;;;;25.70;10.52;;;;;;;0.32;100.00;95225.50;4969248;28;20051;-79
2021/11/27 01:48:59;;;;;;;28.50;10.68;;;;;;;0.22;100.00;95199.97;4968956;28;20433;-80
2021/11/27 01:51:36;;;;;;;26.85;10.45;;;;;;;0.13;100.00;95185.84;4969493;28;20157;-80
2021/11/27 01:54:08;;;;;;;22.08;10.73;;;;;;;0.15;100.00;95212.94;4969321;28;20070;-80
2021/11/27 01:56:50;;;;;;;24.35;10.88;;;;;;;0.03;100.00;95182.72;4970148;28;20291;-79
2021/11/27 01:59:20;;;;;;;27.38;11.30;;;;;;;0.16;100.00;95197.75;4974333;28;20058;-80
2021/11/27 02:01:50;;;;;;;21.88;10.10;;;;;;;0.16;100.00;95201.22;4978685;28;20058;-80
2021/11/27 02:04:18;;;;;;;24.27;10.57;;;;;;;0.10;100.00;95209.66;4971829;28;20545;-80
2021/11/27 02:06:46;;;;;;;22.60;10.57;;;;;;;0.09;100.00;95202.75;4969563;28;20066;-80
2021/11/27 02:09:18;;;;;;;29.38;10.43;;;;;;;-0.02;100.00;95205.69;4968662;28;20158;-80
2021/11/27 02:11:46;;;;;;;22.88;9.85;;;;;;;-0.06;100.00;95215.38;4969458;28;20054;-80
2021/11/27 02:14:14;;;;;;;27.88;11.25;;;;;;;-0.07;100.00;95207.69;4968921;28;20463;-80
2021/11/27 02:16:41;;;;;;;24.17;10.27;;;;;;;-0.17;100.00;95206.09;4968885;28;20288;-80
2021/11/27 02:19:08;;;;;;;25.83;10.60;;;;;;;-0.21;100.00;95213.13;4968996;28;20090;-80
2021/11/27 02:21:35;;;;;;;26.88;10.40;;;;;;;-0.21;100.00;95207.03;4969120;28;20089;-80
2021/11/27 02:24:03;;;;;;;28.75;11.32;;;;;;;-0.26;100.00;95209.81;4969744;28;20051;-81
2021/11/27 02:26:34;;;;;;;27.35;10.20;;;;;;;-0.28;100.00;95209.31;4970224;28;20046;-79
2021/11/27 02:29:08;;;;;;;27.58;11.32;;;;;;;-0.31;100.00;95205.38;4969346;28;20051;-80
2021/11/27 02:31:36;;;;;;;26.00;10.73;;;;;;;-0.33;100.00;95204.91;4971729;28;20055;-80
2021/11/27 02:34:04;;;;;;;23.80;10.15;;;;;;;-0.29;100.00;95210.41;4971760;28;20206;-80
2021/11/27 02:36:32;;;;;;;24.13;10.52;;;;;;;-0.34;100.00;95214.00;4971340;28;20088;-80
2021/11/27 02:39:00;;;;;;;24.33;10.15;;;;;;;-0.31;100.00;95210.69;4971599;28;20054;-79
2021/11/27 02:41:27;;;;;;;24.83;10.82;;;;;;;-0.31;100.00;95212.59;4972194;28;20069;-80
2021/11/27 02:43:54;;;;;;;26.02;9.88;;;;;;;-0.30;100.00;95208.84;4973340;28;20129;-80
2021/11/27 02:46:20;;;;;;;25.30;10.32;;;;;;;-0.35;100.00;95211.63;4972333;28;20288;-80
2021/11/27 02:48:48;;;;;;;19.77;9.75;;;;;;;-0.34;100.00;95199.91;4972468;28;20121;-80
2021/11/27 02:51:15;;;;;;;24.63;9.80;;;;;;;-0.30;100.00;95196.34;4972941;28;20113;-80
2021/11/27 02:53:42;;;;;;;24.00;9.70;;;;;;;-0.29;100.00;95184.63;4973239;28;20070;-80
2021/11/27 02:56:09;;;;;;;23.80;9.55;;;;;;;-0.29;100.00;95189.16;4972138;28;20051;-80
2021/11/27 02:58:36;;;;;;;23.52;9.90;;;;;;;-0.25;100.00;95196.19;4971796;28;20054;-80
2021/11/27 03:01:05;;;;;;;23.33;9.32;;;;;;;-0.27;100.00;95186.97;4972817;28;20101;-80
2021/11/27 03:03:34;;;;;;;25.42;10.23;;;;;;;-0.23;100.00;95190.56;4973766;28;20059;-80
2021/11/27 03:06:02;;;;;;;27.73;9.93;;;;;;;-0.23;100.00;95187.91;4980048;28;20169;-80
2021/11/27 03:08:29;;;;;;;25.60;9.90;;;;;;;-0.17;100.00;95176.84;4978290;28;20058;-80
2021/11/27 03:10:57;;;;;;;23.98;9.98;;;;;;;-0.14;100.00;95178.13;4973507;28;20514;-81
2021/11/27 03:13:43;;;;;;;23.73;9.90;;;;;;;-0.12;100.00;95173.25;4972641;28;20086;-79
2021/11/27 03:16:09;;;;;;;23.85;10.95;;;;;;;-0.07;100.00;95165.16;4968341;28;20114;-80
2021/11/27 03:18:36;;;;;;;25.13;9.93;;;;;;;0.05;100.00;95164.56;4970782;28;20047;-81
2021/11/27 03:21:03;;;;;;;26.52;10.48;;;;;;;0.14;100.00;95173.34;4969047;28;20086;-80
2021/11/27 03:23:31;;;;;;;20.58;9.75;;;;;;;0.20;100.00;95180.91;4969039;28;20067;-79
2021/11/27 03:25:57;;;;;;;25.83;10.63;;;;;;;0.28;100.00;95174.81;4969263;28;20149;-80
2021/11/27 03:28:25;;;;;;;22.95;10.18;;;;;;;0.43;100.00;95181.56;4968478;28;20062;-81
2021/11/27 03:30:53;;;;;;;22.25;9.73;;;;;;;0.56;100.00;95178.00;4968186;28;20039;-80
2021/11/27 03:33:23;;;;;;;27.67;10.90;;;;;;;0.70;100.00;95188.50;4969510;28;20523;-82
2021/11/27 03:35:53;;;;;;;26.65;10.63;;;;;;;0.88;100.00;95177.53;4975853;28;20146;-81
2021/11/27 03:38:22;;;;;;;22.88;9.82;;;;;;;1.06;100.00;95175.63;4974657;28;20047;-81
2021/11/27 03:40:51;;;;;;;25.75;10.10;;;;;;;1.21;100.00;95181.28;4969715;28;20074;-81
2021/11/27 03:43:18;;;;;;;26.02;10.35;;;;;;;1.35;100.00;95167.78;4971642;28;20059;-82
2021/11/27 03:45:46;;;;;;;20.35;10.00;;;;;;;1.40;100.00;95166.81;4969365;28;20043;-81
2021/11/27 03:48:16;;;;;;;21.90;9.68;;;;;;;1.40;100.00;95178.28;4968759;28;20463;-82
2021/11/27 03:50:50;;;;;;;25.88;10.73;;;;;;;1.45;100.00;95174.66;4968847;28;20086;-81
2021/11/27 03:53:23;;;;;;;24.90;9.68;;;;;;;1.53;100.00;95165.84;4969469;28;20043;-82
2021/11/27 03:55:58;;;;;;;24.30;10.20;;;;;;;1.57;100.00;95167.59;4970044;28;20035;-81
2021/11/27 03:58:28;;;;;;;21.83;10.13;;;;;;;1.64;100.00;95175.09;4969747;28;20047;-82
2021/11/27 04:00:57;;;;;;;24.92;10.90;;;;;;;1.60;100.00;95168.84;4968715;28;20089;-80
2021/11/27 04:03:27;;;;;;;23.83;10.18;;;;;;;1.66;100.00;95176.34;4969374;28;20087;-81
2021/11/27 04:06:01;;;;;;;25.02;10.75;;;;;;;1.69;100.00;95197.03;4971818;28;20083;-80
2021/11/27 04:08:30;;;;;;;23.10;10.63;;;;;;;1.70;100.00;95181.81;4972722;28;20049;-81
2021/11/27 04:10:59;;;;;;;22.90;10.02;;;;;;;1.72;100.00;95168.94;4972173;28;20165;-81
2021/11/27 04:13:29;;;;;;;26.83;10.77;;;;;;;1.78;100.00;95176.44;4972672;28;20046;-81
2021/11/27 04:15:57;;;;;;;23.02;10.63;;;;;;;1.68;100.00;95165.34;4972171;28;20053;-81
2021/11/27 04:18:26;;;;;;;23.70;9.73;;;;;;;1.62;100.00;95177.28;4973464;28;20510;-81
2021/11/27 04:20:56;;;;;;;22.20;9.75;;;;;;;1.56;100.00;95183.88;4972045;28;20038;-82
2021/11/27 04:23:24;;;;;;;22.08;9.68;;;;;;;1.59;100.00;95164.59;4973310;28;20058;-82
2021/11/27 04:25:51;;;;;;;23.70;10.00;;;;;;;1.55;100.00;95156.44;4974609;28;20122;-81
2021/11/27 04:28:19;;;;;;;20.25;9.60;;;;;;;1.52;100.00;95167.75;4974341;28;20074;-81
2021/11/27 04:30:48;;;;;;;21.83;9.50;;;;;;;1.43;100.00;95155.53;4971669;28;20039;-82
2021/11/27 04:33:17;;;;;;;21.95;9.73;;;;;;;1.34;100.00;95154.78;4972206;28;20468;-81
2021/11/27 04:35:44;;;;;;;24.50;10.05;;;;;;;1.36;100.00;95152.56;4971738;28;20443;-81
2021/11/27 04:38:13;;;;;;;21.73;10.25;;;;;;;1.24;100.00;95155.88;4971953;28;20043;-81
2021/11/27 04:40:41;;;;;;;22.60;10.20;;;;;;;1.21;100.00;95159.97;4985776;28;20073;-81
2021/11/27 04:43:09;;;;;;;24.25;10.40;;;;;;;1.20;100.00;95166.41;4985113;28;20043;-81
2021/11/27 04:45:36;;;;;;;24.77;11.18;;;;;;;1.18;100.00;95173.16;4981362;28;20547;-81
2021/11/27 04:48:04;;;;;;;23.40;9.95;;;;;;;1.10;100.00;95161.41;4970592;28;20046;-81
2021/11/27 04:50:33;;;;;;;26.92;11.63;;;;;;;1.15;100.00;95173.78;4969938;28;20063;-81
2021/11/27 04:53:01;;;;;;;21.85;9.88;;;;;;;1.12;100.00;95156.53;4971027;28;20138;-81
2021/11/27 04:55:28;;;;;;;28.02;11.43;;;;;;;1.08;100.00;95160.16;4969731;28;20039;-81
2021/11/27 04:57:57;;;;;;;27.25;11.60;;;;;;;1.11;100.00;95164.84;4969908;28;20129;-82
2021/11/27 05:00:32;;;;;;;25.05;10.77;;;;;;;0.97;100.00;95161.56;4970122;28;20318;-81
2021/11/27 05:03:03;;;;;;;28.65;11.60;;;;;;;1.02;100.00;95153.41;4971354;28;20094;-80
2021/11/27 05:05:34;;;;;;;30.55;11.68;;;;;;;0.96;100.00;95159.97;4971178;28;20392;-81
2021/11/27 05:08:06;;;;;;;25.08;11.25;;;;;;;1.08;100.00;95152.94;4970196;28;20118;-81
2021/11/27 05:10:39;;;;;;;25.13;10.98;;;;;;;1.22;100.00;95155.41;4970490;28;20086;-81
2021/11/27 05:13:07;;;;;;;25.40;10.65;;;;;;;1.17;100.00;95158.25;4970249;28;20558;-81
2021/11/27 05:15:35;;;;;;;23.75;11.02;;;;;;;1.26;100.00;95165.13;4970589;28;20415;-82
2021/11/27 05:18:04;;;;;;;27.05;11.25;;;;;;;1.34;100.00;95163.56;4969312;28;20055;-80
2021/11/27 05:20:32;;;;;;;24.98;11.25;;;;;;;1.48;100.00;95150.81;4970453;28;20047;-81
2021/11/27 05:23:03;;;;;;;24.35;10.93;;;;;;;1.57;100.00;95161.47;4970673;28;20074;-82
2021/11/27 05:25:33;;;;;;;25.27;10.90;;;;;;;1.72;100.00;95160.94;4970539;28;20109;-81
2021/11/27 05:28:03;;;;;;;26.23;11.60;;;;;;;1.72;100.00;95152.94;4970570;28;20069;-82
2021/11/27 05:30:33;;;;;;;22.17;10.43;;;;;;;1.82;100.00;95160.59;4970008;28;20047;-80
2021/11/27 05:35:28;;;;;;;22.73;10.32;;;;;;;2.04;100.00;95154.25;4972221;28;20117;-81
2021/11/27 05:37:56;;;;;;;21.90;10.90;;;;;;;2.07;100.00;95149.03;4970346;28;20051;-81
2021/11/27 05:40:23;;;;;;;20.33;10.13;;;;;;;2.20;100.00;95156.03;5006731;23;20050;-82
2021/11/27 05:42:49;;;;;;;24.38;10.15;;;;;;;2.29;100.00;95164.00;4976781;28;20053;-79
2021/11/27 05:45:16;;;;;;;21.23;10.57;;;;;;;2.36;100.00;95159.72;4977319;28;20049;-79
2021/11/27 05:47:43;;;;;;;25.40;11.27;;;;;;;2.44;100.00;95166.91;4979575;28;20512;-79
2021/11/27 05:50:10;;;;;;;22.55;10.60;;;;;;;2.47;100.00;95178.81;4980474;28;20293;-79
2021/11/27 05:52:38;;;;;;;21.58;10.35;;;;;;;2.48;100.00;95175.03;4979794;28;20060;-78
2021/11/27 05:55:05;;;;;;;23.85;11.43;;;;;;;2.53;100.00;95168.72;4979081;28;20068;-80
2021/11/27 05:57:32;;;;;;;23.15;11.23;;;;;;;2.53;100.00;95169.50;4979187;28;20054;-79
2021/11/27 05:59:59;;;;;;;23.13;11.05;;;;;;;2.58;100.00;95169.34;4978741;28;20050;-79
2021/11/27 06:02:26;;;;;;;22.85;10.90;;;;;;;2.63;100.00;95182.50;4976764;28;20046;-78
2021/11/27 06:04:53;;;;;;;23.25;10.98;;;;;;;2.61;100.00;95175.91;4978486;28;20071;-80
2021/11/27 06:07:19;;;;;;;21.83;10.80;;;;;;;2.61;100.00;95179.34;4978208;28;20054;-79
2021/11/27 06:09:46;;;;;;;23.80;11.35;;;;;;;2.61;100.00;95168.66;4979667;28;20157;-79
2021/11/27 06:12:13;;;;;;;25.85;11.32;;;;;;;2.64;100.00;95180.56;4979277;28;20042;-79
2021/11/27 06:14:40;;;;;;;26.30;11.68;;;;;;;2.60;100.00;95174.34;4978748;28;20060;-79
2021/11/27 06:17:06;;;;;;;24.50;11.40;;;;;;;2.65;100.00;95190.97;4995422;28;20038;-79
2021/11/27 06:19:33;;;;;;;23.25;11.73;;;;;;;2.73;100.00;95190.13;4977738;28;20390;-80
2021/11/27 06:22:00;;;;;;;28.88;11.98;;;;;;;2.71;100.00;95191.56;4977440;28;20058;-81
2021/11/27 06:24:27;;;;;;;27.83;12.73;;;;;;;2.74;100.00;95190.88;4979446;28;20054;-81
2021/11/27 06:26:54;;;;;;;27.52;13.30;;;;;;;2.81;100.00;95193.84;4987073;28;20046;-81
2021/11/27 06:29:21;;;;;;;27.13;13.10;;;;;;;2.85;100.00;95200.09;4990248;28;20042;-81
2021/11/27 06:31:47;;;;;;;28.38;13.00;;;;;;;2.79;100.00;95193.34;4966901;28;20081;-80
2021/11/27 06:34:16;;;;;;;26.40;13.10;;;;;;;2.79;100.00;95198.69;4978728;28;20054;-78
2021/11/27 06:36:43;;;;;;;27.00;12.55;;;;;;;2.85;100.00;95197.41;4980684;28;20046;-79
2021/11/27 06:39:10;;;;;;;26.92;13.27;;;;;;;2.90;100.00;95206.03;4972880;28;20062;-81
2021/11/27 06:41:37;;;;;;;25.60;13.63;;;;;;;2.88;100.00;95213.59;4975145;28;20129;-79
2021/11/27 06:44:04;;;;;;;29.52;13.93;;;;;;;2.85;100.00;95213.44;4974890;28;20050;-80
2021/11/27 06:46:31;;;;;;;28.42;13.18;;;;;;;2.89;100.00;95211.69;4978809;28;20050;-80
2021/11/27 06:48:58;;;;;;;28.50;13.40;;;;;;;2.91;100.00;95220.16;4984458;28;20057;-80
2021/11/27 06:51:25;;;;;;;26.27;13.57;;;;;;;2.96;100.00;95210.06;4989553;28;20414;-79
2021/11/27 06:53:51;;;;;;;30.50;14.18;;;;;;;2.89;100.00;95207.13;4991460;28;20050;-80
2021/11/27 06:56:18;;;;;;;27.13;12.80;;;;;;;2.97;100.00;95221.50;4992204;28;20517;-79
2021/11/27 06:58:45;;;;;;;26.35;13.52;;;;;;;3.00;100.00;95221.66;4991468;28;20462;-80
2021/11/27 07:01:12;;;;;;;28.65;14.07;;;;;;;3.06;100.00;95214.22;4990433;28;20064;-80
2021/11/27 07:03:38;;;;;;;26.63;12.77;;;;;;;3.08;100.00;95225.38;4991033;28;20089;-79
2021/11/27 07:06:05;;;;;;;26.27;14.25;;;;;;;3.05;100.00;95220.69;4994256;28;20056;-78
2021/11/27 07:08:32;;;;;;;28.80;14.48;;;;;;;3.09;100.00;95214.38;4994726;28;20081;-80
2021/11/27 07:10:59;;;;;;;26.13;13.52;;;;;;;3.12;100.00;95212.94;4993796;28;20073;-79
2021/11/27 07:13:26;;;;;;;32.78;15.48;;;;;;;3.06;100.00;95201.66;5006427;28;20058;-82
2021/11/27 07:15:53;;;;;;;28.60;15.38;;;;;;;3.08;100.00;95217.34;5011496;28;20066;-81
2021/11/27 07:18:20;;;;;;;28.08;13.95;;;;;;;3.16;100.00;95224.53;5007708;28;20146;-81
2021/11/27 07:20:46;;;;;;;27.23;14.27;;;;;;;3.28;100.00;95218.47;5011846;28;20048;-81
2021/11/27 07:23:13;;;;;;;26.20;13.68;;;;;;;3.27;100.00;95217.69;5003480;28;20050;-81
2021/11/27 07:25:40;;;;;;;23.95;12.90;;;;;;;3.37;100.00;95219.19;4991439;28;20120;-80
2021/11/27 07:28:09;;;;;;;29.35;13.57;;;;;;;3.28;100.00;95211.22;4986356;28;20052;-80
2021/11/27 07:30:36;;;;;;;30.67;15.20;;;;;;;3.28;100.00;95210.47;4990825;28;20071;-78
2021/11/27 07:33:03;;;;;;;30.45;15.45;;;;;;;3.33;100.00;95219.03;4987294;28;20053;-79
2021/11/27 07:35:30;;;;;;;33.05;16.00;;;;;;;3.36;100.00;95220.28;5004582;28;20034;-79
2021/11/27 07:38:02;;;;;;;30.98;14.35;;;;;;;3.34;100.00;95215.28;5003442;28;20053;-80
2021/11/27 07:40:57;;;;;;;28.02;14.13;;;;;;;3.49;100.00;95220.00;5082321;23;20585;-79
2021/11/27 07:43:37;;;;;;;25.48;12.68;;;;;;;3.23;100.00;95159.88;4964860;28;20084;-81
2021/11/27 07:46:09;;;;;;;24.83;13.48;;;;;;;3.24;100.00;95194.28;4959156;28;20146;-80
2021/11/27 07:48:36;;;;;;;25.67;12.60;;;;;;;3.47;100.00;95202.72;4962039;28;20043;-79
2021/11/27 07:51:06;;;;;;;26.73;13.60;;;;;;;3.70;100.00;95228.00;4958412;28;20573;-79
2021/11/27 07:57:18;;;;;;;22.80;12.65;;;;;;;3.43;100.00;95188.47;4958656;28;20059;-80
2021/11/27 07:59:53;;;;;;;24.48;12.20;;;;;;;3.53;100.00;95188.84;4982283;28;20543;-81
2021/11/27 08:05:50;;;;;;;24.17;11.98;;;;;;;3.85;100.00;95234.59;4999180;28;20064;-78
2021/11/27 08:12:10;;;;;;;;;;;;;;;;;;;;;
2021/11/27 08:14:51;;;;;;;23.60;11.65;;;;;;;4.02;100.00;95221.06;4917788;29;20304;-78
2021/11/27 08:17:23;;;;;;;23.02;11.60;;;;;;;4.26;100.00;95234.47;4915013;29;20036;-78
2021/11/27 08:19:50;;;;;;;24.42;12.57;;;;;;;4.25;100.00;95233.72;4913964;29;20054;-78
2021/11/27 08:22:17;;;;;;;24.13;12.23;;;;;;;4.10;100.00;95241.59;4902458;29;20056;-80
2021/11/27 08:24:44;;;;;;;24.23;11.95;;;;;;;4.25;100.00;95246.31;4922785;29;20299;-78
2021/11/27 08:27:11;;;;;;;21.30;11.65;;;;;;;4.37;100.00;95240.97;4921687;29;20114;-78
2021/11/27 08:29:37;;;;;;;20.65;12.07;;;;;;;4.52;100.00;95248.34;4921988;29;20405;-79
2021/11/27 08:32:05;;;;;;;23.42;12.40;;;;;;;4.29;100.00;95239.16;4937735;29;20062;-78
2021/11/27 08:34:32;;;;;;;24.25;11.63;;;;;;;4.37;100.00;95240.97;4921473;29;20054;-79
2021/11/27 08:36:59;;;;;;;23.42;12.35;;;;;;;4.35;100.00;95243.19;4921064;29;20044;-79
2021/11/27 08:39:25;;;;;;;23.48;12.00;;;;;;;4.45;100.00;95240.06;4921052;29;20047;-78
2021/11/27 08:41:52;;;;;;;22.35;11.55;;;;;;;4.44;100.00;95240.41;4938287;29;20452;-80
2021/11/27 08:44:19;;;;;;;24.05;11.75;;;;;;;4.26;100.00;95242.50;4931050;29;20285;-80
2021/11/27 08:46:46;;;;;;;23.83;11.55;;;;;;;4.32;100.00;95239.28;4937165;29;20138;-79
2021/11/27 08:49:13;;;;;;;21.35;11.40;;;;;;;4.47;100.00;95253.13;4946731;29;20059;-80
2021/11/27 08:51:40;;;;;;;25.25;12.65;;;;;;;4.60;100.00;95255.47;4922525;29;20056;-80
2021/11/27 08:54:07;;;;;;;21.38;12.40;;;;;;;4.47;100.00;95259.25;4921590;29;20048;-79
2021/11/27 08:56:39;;;;;;;26.52;12.15;;;;;;;4.56;100.00;95272.56;4925602;29;20047;-79
2021/11/27 08:59:06;;;;;;;22.75;12.00;;;;;;;4.47;100.00;95274.53;4930184;29;20062;-80
2021/11/27 09:01:34;;;;;;;25.35;12.27;;;;;;;4.61;100.00;95270.44;4944672;29;20078;-79
2021/11/27 09:04:01;;;;;;;21.75;11.60;;;;;;;4.67;100.00;95282.50;4931049;29;20047;-80
2021/11/27 09:06:28;;;;;;;24.58;11.38;;;;;;;4.87;100.00;95259.41;4931665;29;20050;-80
2021/11/27 09:08:55;;;;;;;25.38;12.52;;;;;;;5.00;100.00;95269.00;4944983;29;20055;-78
2021/11/27 09:11:28;;;;;;;26.73;12.40;;;;;;;4.84;100.00;95260.06;4946599;29;20058;-80
2021/11/27 09:13:55;;;;;;;22.27;11.95;;;;;;;5.14;100.00;95265.94;4916205;29;20595;-79
2021/11/27 09:16:25;;;;;;;21.20;11.68;;;;;;;5.20;100.00;95261.91;4927314;29;20475;-79
2021/11/27 09:19:02;;;;;;;20.63;11.93;;;;;;;5.18;100.00;95261.47;4913567;29;20063;-79
2021/11/27 09:21:30;;;;;;;21.55;11.80;;;;;;;5.24;100.00;95257.44;4922811;29;20095;-78
2021/11/27 09:23:57;;;;;;;22.65;11.65;;;;;;;5.30;100.00;95267.59;4922023;29;20056;-80
2021/11/27 09:26:24;;;;;;;23.10;11.38;;;;;;;5.33;100.00;95255.41;4918129;29;20203;-80
2021/11/27 09:28:51;;;;;;;24.02;11.43;;;;;;;5.52;100.00;95263.63;4913379;29;20056;-79
2021/11/27 09:31:17;;;;;;;21.23;11.40;;;;;;;5.53;100.00;95263.28;4910525;29;20060;-80
2021/11/27 09:33:44;;;;;;;22.38;12.05;;;;;;;5.57;100.00;95264.16;4921469;29;20056;-81
2021/11/27 09:36:19;;;;;;;21.95;10.63;;;;;;;5.83;100.00;95255.69;4934950;29;20044;-80
2021/11/27 09:38:48;;;;;;;20.50;10.95;;;;;;;6.11;100.00;95269.91;4929977;29;20051;-79
2021/11/27 09:41:26;;;;;;;19.85;11.13;;;;;;;6.08;100.00;95267.13;4932847;29;20084;-80
2021/11/27 09:43:58;;;;;;;19.95;10.32;;;;;;;6.51;100.00;95266.28;4926741;29;20552;-79
2021/11/27 09:46:27;;;;;;;19.80;10.32;;;;;;;6.40;100.00;95254.53;4914139;29;20052;-78
2021/11/27 09:48:57;;;;;;;20.73;10.25;;;;;;;6.61;100.00;95257.72;4924702;29;20156;-80
2021/11/27 09:51:30;;;;;;;17.30;9.85;;;;;;;7.03;100.00;95266.78;4919166;29;20431;-81
2021/11/27 09:53:59;;;;;;;20.63;10.48;;;;;;;7.19;100.00;95264.84;4910884;29;20047;-76
2021/11/27 09:56:27;;;;;;;18.85;9.75;;;;;;;6.87;100.00;95253.38;4911656;29;20048;-79
2021/11/27 09:58:55;;;;;;;20.77;10.77;;;;;;;6.73;100.00;95265.72;4909727;29;20086;-79
2021/11/27 10:01:26;;;;;;;18.35;10.35;;;;;;;6.30;100.00;95263.84;4930746;29;20684;-79
2021/11/27 10:04:07;;;;;;;23.08;10.52;;;;;;;6.26;100.00;95247.66;4935084;29;20051;-79
2021/11/27 10:06:39;;;;;;;17.58;9.95;;;;;;;6.11;100.00;95259.16;4926700;29;20048;-79
2021/11/27 10:09:27;;;;;;;15.60;9.82;;;;;;;6.13;100.00;95264.97;4907575;29;20391;-80
2021/11/27 10:11:54;;;;;;;15.55;8.77;;;;;;;6.00;100.00;95255.41;4900279;29;20071;-80
2021/11/27 10:14:22;;;;;;;16.88;8.15;;;;;;;6.03;100.00;95252.03;4921592;29;20048;-79
2021/11/27 10:17:00;;;;;;;16.05;7.97;;;;;;;6.19;100.00;95257.44;4897926;29;20060;-78
2021/11/27 10:19:43;;;;;;;14.30;7.50;;;;;;;5.95;100.00;95254.88;4914974;29;20064;-80
2021/11/27 10:22:13;;;;;;;13.90;7.05;;;;;;;6.04;100.00;95266.25;4923180;28;20024;-79
2021/11/27 10:24:41;;;;;;;13.80;7.68;;;;;;;5.97;100.00;95268.72;4909858;29;20100;-80
2021/11/27 10:27:26;;;;;;;17.58;7.97;;;;;;;6.05;100.00;95265.13;4920486;29;20362;-79
2021/11/27 10:30:01;;;;;;;14.50;7.10;;;;;;;6.15;100.00;95259.25;4912086;29;20059;-79
2021/11/27 10:32:31;;;;;;;13.05;6.85;;;;;;;6.31;100.00;95248.53;4905101;29;20520;-79
2021/11/27 10:34:58;;;;;;;12.52;6.70;;;;;;;6.48;100.00;95261.63;4903622;29;20064;-79
2021/11/27 10:37:24;;;;;;;12.85;6.88;;;;;;;6.60;100.00;95259.66;4915012;29;20048;-80
2021/11/27 10:40:17;;;;;;;9.95;6.10;;;;;;;6.77;100.00;95261.97;4916004;23;20062;-78
2021/11/27 10:43:04;;;;;;;12.60;6.78;;;;;;;6.75;100.00;95237.34;4927570;28;20055;-78
2021/11/27 10:45:41;;;;;;;10.65;6.22;;;;;;;6.31;100.00;95217.06;4942771;29;20741;-79
2021/11/27 10:48:24;;;;;;;11.38;6.25;;;;;;;6.44;100.00;95279.56;4943746;29;20059;-79
2021/11/27 10:50:58;;;;;;;11.02;6.10;;;;;;;6.58;100.00;95223.50;4943291;29;20059;-79
2021/11/27 10:53:43;;;;;;;12.63;6.13;;;;;;;6.86;100.00;95267.94;4976997;28;20058;-81
2021/11/27 10:56:15;;;;;;;10.63;6.03;;;;;;;6.70;100.00;95237.59;4945576;29;20103;-78
2021/11/27 10:59:06;;;;;;;10.68;5.85;;;;;;;6.83;100.00;95247.13;4944800;29;20086;-78
2021/11/27 11:02:12;;;;;;;9.90;5.47;;;;;;;7.03;100.00;95274.06;4945883;29;20059;-78
2021/11/27 11:04:40;;;;;;;10.77;5.78;;;;;;;7.08;100.00;95263.03;4958676;29;20098;-78
2021/11/27 11:07:22;;;;;;;10.73;5.47;;;;;;;6.71;100.00;95235.72;4963794;29;20468;-79
2021/11/27 11:10:20;;;;;;;11.35;5.88;;;;;;;7.45;100.00;95270.44;4958919;28;20083;-80
2021/11/27 11:13:04;;;;;;;9.77;5.13;;;;;;;7.42;100.00;95229.97;4960289;29;20054;-78
2021/11/27 11:15:41;;;;;;;10.95;5.72;;;;;;;7.63;100.00;95224.25;4956770;28;20051;-79
2021/11/27 11:18:18;;;;;;;10.52;5.82;;;;;;;7.63;100.00;95229.63;4959876;29;20462;-79
2021/11/27 11:21:02;;;;;;;14.63;5.78;;;;;;;7.28;100.00;95264.66;4958592;28;20051;-78
2021/11/27 11:23:38;;;;;;;12.30;6.05;;;;;;;6.66;100.00;95230.56;4972900;28;20047;-78
2021/11/27 11:26:27;;;;;;;11.75;5.80;;;;;;;6.44;100.00;95250.00;4973225;28;20051;-79
2021/11/27 11:28:56;;;;;;;10.43;5.68;;;;;;;6.57;100.00;95230.78;4941619;29;20475;-79
2021/11/27 11:31:27;;;;;;;12.20;5.82;;;;;;;6.51;100.00;95250.97;4972320;28;20051;-78
2021/11/27 11:33:59;;;;;;;13.10;5.38;;;;;;;6.39;100.00;95229.56;4973705;28;20108;-78
2021/11/27 11:36:39;;;;;;;9.65;5.13;;;;;;;6.25;100.00;95211.16;4946010;29;20055;-79
2021/11/27 11:39:09;;;;;;;13.70;5.72;;;;;;;6.37;100.00;95213.00;4944968;29;20051;-79
2021/11/27 11:41:37;;;;;;;11.27;5.68;;;;;;;6.88;100.00;95240.72;5151132;23;20047;-81
2021/11/27 11:44:04;;;;;;;12.63;5.50;;;;;;;7.11;100.00;95248.91;4953483;28;20121;-82
2021/11/27 11:46:33;;;;;;;12.27;5.20;;;;;;;7.11;100.00;95262.34;4935926;29;20146;-81
2021/11/27 11:49:00;;;;;;;10.60;5.45;;;;;;;6.57;100.00;95238.84;4952636;29;20062;-82
2021/11/27 11:51:43;;;;;;;11.27;5.88;;;;;;;6.85;100.00;95274.44;4931629;29;20154;-83
2021/11/27 11:54:10;;;;;;;10.25;5.15;;;;;;;6.61;100.00;95265.78;4949113;29;20159;-82
2021/11/27 11:56:40;;;;;;;11.25;6.05;;;;;;;6.76;100.00;95257.69;4937512;29;20044;-83
2021/11/27 11:59:28;;;;;;;12.27;5.95;;;;;;;7.01;100.00;95252.91;4954813;29;20043;-83
2021/11/27 12:02:21;;;;;;;10.95;5.65;;;;;;;6.81;100.00;95256.69;4948407;29;20256;-83
2021/11/27 12:04:58;;;;;;;13.25;5.90;;;;;;;7.04;100.00;95271.06;4959791;23;20051;-83
2021/11/27 12:07:43;;;;;;;9.88;5.50;;;;;;;7.19;100.00;95270.25;4956633;28;20051;-82
2021/11/27 12:10:37;;;;;;;13.80;5.18;;;;;;;7.27;100.00;95268.47;4955526;28;20051;-81
2021/11/27 12:13:07;;;;;;;10.27;5.53;;;;;;;7.06;100.00;95281.44;4970011;28;20058;-81
2021/11/27 12:15:37;;;;;;;11.85;5.55;;;;;;;6.94;100.00;95273.50;4969732;28;20061;-81
2021/11/27 12:18:17;;;;;;;9.82;5.18;;;;;;;6.76;100.00;95271.16;4956698;29;20047;-82